createdAt,value
2022-10-11T00:00:03.879Z,0.00
2022-10-11T00:01:03.914Z,0.00
2022-10-11T00:02:03.947Z,0.00
2022-10-11T00:03:03.872Z,0.00
2022-10-11T00:04:03.805Z,0.00
2022-10-11T00:05:03.801Z,0.00
2022-10-11T00:06:04.274Z,0.00
2022-10-11T00:07:03.827Z,0.00
2022-10-11T00:08:03.789Z,0.00
2022-10-11T00:09:03.770Z,0.00
2022-10-11T00:10:03.764Z,0.00
2022-10-11T00:11:03.746Z,0.00
2022-10-11T00:12:03.744Z,0.00
2022-10-11T00:13:03.719Z,0.00
2022-10-11T00:14:03.719Z,0.00
2022-10-11T00:15:03.711Z,0.00
2022-10-11T00:16:04.049Z,0.00
2022-10-11T00:17:03.688Z,0.00
2022-10-11T00:18:05.482Z,0.00
2022-10-11T00:19:03.665Z,0.00
2022-10-11T00:20:03.792Z,0.00
2022-10-11T00:21:03.648Z,0.00
2022-10-11T00:22:03.643Z,0.00
2022-10-11T00:23:03.620Z,0.00
2022-10-11T00:24:03.615Z,0.00
2022-10-11T00:25:03.597Z,0.00
2022-10-11T00:26:04.081Z,0.00
2022-10-11T00:27:03.591Z,0.00
2022-10-11T00:28:03.570Z,0.00
2022-10-11T00:29:03.561Z,0.00
2022-10-11T00:30:03.537Z,0.00
2022-10-11T00:31:03.884Z,0.00
2022-10-11T00:32:03.520Z,0.00
2022-10-11T00:33:04.056Z,0.00
2022-10-11T00:34:03.503Z,0.00
2022-10-11T00:35:03.488Z,0.00
2022-10-11T00:36:03.843Z,0.00
2022-10-11T00:37:03.488Z,0.00
2022-10-11T00:38:03.468Z,0.00
2022-10-11T00:39:03.478Z,0.00
2022-10-11T00:40:03.439Z,0.00
2022-10-11T00:41:03.414Z,0.00
2022-10-11T00:42:03.411Z,0.00
2022-10-11T00:43:03.399Z,0.00
2022-10-11T00:44:03.409Z,0.00
2022-10-11T00:45:03.399Z,0.00
2022-10-11T00:46:03.855Z,0.00
2022-10-11T00:47:03.356Z,0.00
2022-10-11T00:48:03.347Z,0.00
2022-10-11T00:49:03.328Z,0.00
2022-10-11T00:50:03.337Z,0.00
2022-10-11T00:51:03.815Z,0.00
2022-10-11T00:52:03.316Z,0.00
2022-10-11T00:53:03.295Z,0.00
2022-10-11T00:54:03.284Z,0.00
2022-10-11T00:55:03.275Z,0.00
2022-10-11T00:56:03.673Z,0.00
2022-10-11T00:57:03.252Z,0.00
2022-10-11T00:58:03.243Z,0.00
2022-10-11T00:59:03.224Z,0.00
2022-10-11T01:00:03.199Z,0.00
2022-10-11T01:01:03.484Z,0.00
2022-10-11T01:02:03.198Z,0.00
2022-10-11T01:03:03.184Z,0.00
2022-10-11T01:04:03.294Z,0.00
2022-10-11T01:05:27.782Z,0.00
2022-10-11T01:06:04.423Z,0.00
2022-10-11T01:07:03.189Z,0.00
2022-10-11T01:08:03.124Z,0.00
2022-10-11T01:09:03.116Z,0.00
2022-10-11T01:10:03.142Z,0.00
2022-10-11T01:11:03.097Z,0.00
2022-10-11T01:12:03.164Z,0.00
2022-10-11T01:13:03.080Z,0.00
2022-10-11T01:14:03.112Z,0.00
2022-10-11T01:15:03.061Z,0.00
2022-10-11T01:16:03.519Z,0.00
2022-10-11T01:17:03.014Z,0.00
2022-10-11T01:18:03.026Z,0.00
2022-10-11T01:19:03.047Z,0.00
2022-10-11T01:20:03.012Z,0.00
2022-10-11T01:21:02.998Z,0.00
2022-10-11T01:22:02.995Z,0.00
2022-10-11T01:23:03.006Z,0.00
2022-10-11T01:24:08.160Z,0.00
2022-10-11T01:25:03.957Z,0.00
2022-10-11T01:26:03.397Z,0.00
2022-10-11T01:27:02.960Z,0.00
2022-10-11T01:28:02.917Z,0.00
2022-10-11T01:29:02.923Z,0.00
2022-10-11T01:30:03.056Z,0.00
2022-10-11T01:31:02.889Z,0.00
2022-10-11T01:32:02.871Z,0.00
2022-10-11T01:33:02.872Z,0.00
2022-10-11T01:34:02.867Z,0.00
2022-10-11T01:35:03.147Z,0.00
2022-10-11T01:36:03.050Z,0.00
2022-10-11T01:37:02.835Z,0.00
2022-10-11T01:38:02.830Z,0.00
2022-10-11T01:39:02.808Z,0.00
2022-10-11T01:40:02.779Z,0.00
2022-10-11T01:41:02.835Z,0.00
2022-10-11T01:42:02.777Z,0.00
2022-10-11T01:43:02.813Z,0.00
2022-10-11T01:44:02.759Z,0.00
2022-10-11T01:45:02.745Z,0.00
2022-10-11T01:46:03.213Z,0.00
2022-10-11T01:47:02.696Z,0.00
2022-10-11T01:48:02.693Z,0.00
2022-10-11T01:49:03.068Z,0.00
2022-10-11T01:50:02.706Z,0.00
2022-10-11T01:51:02.667Z,0.00
2022-10-11T01:52:02.720Z,0.00
2022-10-11T01:53:02.684Z,0.00
2022-10-11T01:54:02.650Z,0.00
2022-10-11T01:55:10.637Z,0.00
2022-10-11T01:56:03.978Z,0.00
2022-10-11T01:57:02.619Z,0.00
2022-10-11T01:58:03.124Z,0.00
2022-10-11T01:59:02.586Z,0.00
2022-10-11T02:00:02.581Z,0.00
2022-10-11T02:01:02.642Z,0.00
2022-10-11T02:02:02.580Z,0.00
2022-10-11T02:03:02.556Z,0.00
2022-10-11T02:04:02.521Z,0.00
2022-10-11T02:05:02.532Z,0.00
2022-10-11T02:06:02.931Z,0.00
2022-10-11T02:07:03.961Z,0.00
2022-10-11T02:08:02.498Z,0.00
2022-10-11T02:09:07.782Z,0.00
2022-10-11T02:10:03.485Z,0.00
2022-10-11T02:11:02.443Z,0.00
2022-10-11T02:12:02.447Z,0.00
2022-10-11T02:13:02.446Z,0.00
2022-10-11T02:14:02.438Z,0.00
2022-10-11T02:15:02.455Z,0.00
2022-10-11T02:16:02.770Z,0.00
2022-10-11T02:17:02.401Z,0.00
2022-10-11T02:18:02.409Z,0.00
2022-10-11T02:19:02.387Z,0.00
2022-10-11T02:20:02.394Z,0.00
2022-10-11T02:21:02.344Z,0.00
2022-10-11T02:22:02.346Z,0.00
2022-10-11T02:23:02.361Z,0.00
2022-10-11T02:24:02.314Z,0.00
2022-10-11T02:25:02.314Z,0.00
2022-10-11T02:26:02.744Z,0.00
2022-10-11T02:27:02.356Z,0.00
2022-10-11T02:28:02.272Z,0.00
2022-10-11T02:29:02.333Z,0.00
2022-10-11T02:30:02.266Z,0.00
2022-10-11T02:31:02.264Z,0.00
2022-10-11T02:32:02.241Z,0.00
2022-10-11T02:33:02.223Z,0.00
2022-10-11T02:34:02.214Z,0.00
2022-10-11T02:35:02.190Z,0.00
2022-10-11T02:36:02.541Z,0.00
2022-10-11T02:37:02.343Z,0.00
2022-10-11T02:38:02.214Z,0.00
2022-10-11T02:39:02.155Z,0.00
2022-10-11T02:40:02.162Z,0.00
2022-10-11T02:41:02.161Z,0.00
2022-10-11T02:42:02.135Z,0.00
2022-10-11T02:43:02.104Z,0.00
2022-10-11T02:44:02.110Z,0.00
2022-10-11T02:45:02.111Z,0.00
2022-10-11T02:46:02.841Z,0.00
2022-10-11T02:47:02.064Z,0.00
2022-10-11T02:48:02.074Z,0.00
2022-10-11T02:49:02.055Z,0.00
2022-10-11T02:50:02.051Z,0.00
2022-10-11T02:51:02.390Z,0.00
2022-10-11T02:52:02.028Z,0.00
2022-10-11T02:53:02.031Z,0.00
2022-10-11T02:54:02.057Z,0.00
2022-10-11T02:55:01.998Z,0.00
2022-10-11T02:56:02.559Z,0.00
2022-10-11T02:57:01.954Z,0.00
2022-10-11T02:58:02.006Z,0.00
2022-10-11T02:59:01.937Z,0.00
2022-10-11T03:00:01.944Z,0.00
2022-10-11T03:01:01.933Z,0.00
2022-10-11T03:02:02.148Z,0.00
2022-10-11T03:03:01.907Z,0.00
2022-10-11T03:04:01.922Z,0.00
2022-10-11T03:05:01.882Z,0.00
2022-10-11T03:06:02.256Z,0.00
2022-10-11T03:07:01.866Z,0.00
2022-10-11T03:08:01.975Z,0.00
2022-10-11T03:09:01.882Z,0.00
2022-10-11T03:10:01.848Z,0.00
2022-10-11T03:11:01.827Z,0.00
2022-10-11T03:12:01.815Z,0.00
2022-10-11T03:13:01.782Z,0.00
2022-10-11T03:14:01.823Z,0.00
2022-10-11T03:15:01.766Z,0.00
2022-10-11T03:16:07.268Z,0.00
2022-10-11T03:17:23.824Z,0.00
2022-10-11T03:18:02.755Z,0.00
2022-10-11T03:19:01.728Z,0.00
2022-10-11T03:20:01.724Z,0.00
2022-10-11T03:21:01.781Z,0.00
2022-10-11T03:22:01.692Z,0.00
2022-10-11T03:23:01.694Z,0.00
2022-10-11T03:24:01.714Z,0.00
2022-10-11T03:25:04.443Z,0.00
2022-10-11T03:26:02.032Z,0.00
2022-10-11T03:27:01.779Z,0.00
2022-10-11T03:28:01.633Z,0.00
2022-10-11T03:29:01.640Z,0.00
2022-10-11T03:30:01.636Z,0.00
2022-10-11T03:31:01.677Z,0.00
2022-10-11T03:32:01.626Z,0.00
2022-10-11T03:33:01.614Z,0.00
2022-10-11T03:34:01.606Z,0.00
2022-10-11T03:35:01.564Z,0.00
2022-10-11T03:36:01.724Z,0.00
2022-10-11T03:37:01.540Z,0.00
2022-10-11T03:38:01.532Z,0.00
2022-10-11T03:39:01.899Z,0.00
2022-10-11T03:40:01.491Z,0.00
2022-10-11T03:41:01.518Z,0.00
2022-10-11T03:42:01.484Z,0.00
2022-10-11T03:43:01.481Z,0.00
2022-10-11T03:44:01.471Z,0.00
2022-10-11T03:45:01.432Z,0.00
2022-10-11T03:46:01.883Z,0.00
2022-10-11T03:47:01.470Z,0.00
2022-10-11T03:48:01.416Z,0.00
2022-10-11T03:49:01.442Z,0.00
2022-10-11T03:50:01.419Z,0.00
2022-10-11T03:51:01.409Z,0.00
2022-10-11T03:52:01.436Z,0.00
2022-10-11T03:53:01.493Z,0.00
2022-10-11T03:54:01.352Z,0.00
2022-10-11T03:55:01.337Z,0.00
2022-10-11T03:56:05.861Z,0.00
2022-10-11T03:57:02.337Z,0.00
2022-10-11T03:58:01.301Z,0.00
2022-10-11T03:59:01.337Z,0.00
2022-10-11T04:00:01.293Z,0.00
2022-10-11T04:01:01.300Z,0.00
2022-10-11T04:02:01.362Z,0.00
2022-10-11T04:03:01.262Z,0.00
2022-10-11T04:04:01.235Z,0.00
2022-10-11T04:05:01.289Z,0.00
2022-10-11T04:06:01.260Z,0.00
2022-10-11T04:07:01.263Z,0.00
2022-10-11T04:08:01.263Z,0.00
2022-10-11T04:09:01.249Z,0.00
2022-10-11T04:10:01.221Z,0.00
2022-10-11T04:11:01.163Z,0.00
2022-10-11T04:12:01.178Z,0.00
2022-10-11T04:13:01.159Z,0.00
2022-10-11T04:14:01.145Z,0.00
2022-10-11T04:15:01.126Z,0.00
2022-10-11T04:16:01.245Z,0.00
2022-10-11T04:17:01.113Z,0.00
2022-10-11T04:18:01.103Z,0.00
2022-10-11T04:19:01.100Z,0.00
2022-10-11T04:20:01.113Z,0.00
2022-10-11T04:21:01.057Z,0.00
2022-10-11T04:22:01.068Z,0.00
2022-10-11T04:23:01.044Z,0.00
2022-10-11T04:24:01.030Z,0.00
2022-10-11T04:25:01.011Z,0.00
2022-10-11T04:26:01.278Z,0.00
2022-10-11T04:27:01.014Z,0.00
2022-10-11T04:28:00.980Z,0.00
2022-10-11T04:29:00.970Z,0.00
2022-10-11T04:30:00.951Z,0.00
2022-10-11T04:31:00.967Z,0.00
2022-10-11T04:32:00.987Z,0.00
2022-10-11T04:33:00.940Z,0.00
2022-10-11T04:34:00.919Z,0.00
2022-10-11T04:35:00.928Z,0.00
2022-10-11T04:36:00.926Z,0.00
2022-10-11T04:37:00.891Z,0.00
2022-10-11T04:38:00.883Z,0.00
2022-10-11T04:39:00.898Z,0.00
2022-10-11T04:40:00.874Z,0.00
2022-10-11T04:41:01.001Z,0.00
2022-10-11T04:42:00.824Z,0.00
2022-10-11T04:43:00.846Z,0.00
2022-10-11T04:44:00.879Z,0.00
2022-10-11T04:45:00.798Z,0.00
2022-10-11T04:46:00.793Z,0.00
2022-10-11T04:47:00.773Z,0.00
2022-10-11T04:48:00.772Z,0.00
2022-10-11T04:49:00.765Z,0.00
2022-10-11T04:50:00.749Z,0.00
2022-10-11T04:51:00.745Z,0.00
2022-10-11T04:52:00.744Z,0.00
2022-10-11T04:53:00.775Z,0.00
2022-10-11T04:54:00.749Z,0.00
2022-10-11T04:55:00.731Z,0.00
2022-10-11T04:56:00.695Z,0.00
2022-10-11T04:57:00.677Z,0.00
2022-10-11T04:58:00.983Z,0.00
2022-10-11T04:59:00.649Z,0.00
2022-10-11T05:00:00.650Z,0.00
2022-10-11T05:01:00.652Z,0.00
2022-10-11T05:02:00.658Z,0.00
2022-10-11T05:03:01.093Z,0.00
2022-10-11T05:04:00.691Z,0.00
2022-10-11T05:05:00.591Z,0.00
2022-10-11T05:06:05.201Z,0.00
2022-10-11T05:07:01.591Z,0.00
2022-10-11T05:08:00.579Z,0.00
2022-10-11T05:09:00.658Z,0.00
2022-10-11T05:10:00.566Z,0.00
2022-10-11T05:11:00.517Z,0.00
2022-10-11T05:12:00.619Z,0.00
2022-10-11T05:13:00.525Z,0.00
2022-10-11T05:14:00.520Z,0.00
2022-10-11T05:15:00.500Z,0.00
2022-10-11T05:16:00.539Z,0.00
2022-10-11T05:17:00.474Z,0.00
2022-10-11T05:18:00.576Z,0.00
2022-10-11T05:19:00.492Z,0.00
2022-10-11T05:20:00.473Z,0.00
2022-10-11T05:21:00.408Z,0.00
2022-10-11T05:22:00.414Z,0.00
2022-10-11T05:23:00.405Z,0.00
2022-10-11T05:24:00.402Z,0.00
2022-10-11T05:25:00.393Z,0.00
2022-10-11T05:26:00.394Z,0.00
2022-10-11T05:27:03.391Z,0.00
2022-10-11T05:28:00.352Z,0.00
2022-10-11T05:29:00.403Z,0.00
2022-10-11T05:30:00.358Z,0.00
2022-10-11T05:31:00.355Z,0.00
2022-10-11T05:32:00.317Z,5.62
2022-10-11T05:33:00.311Z,5.62
2022-10-11T05:34:00.287Z,5.62
2022-10-11T05:35:00.277Z,5.62
2022-10-11T05:36:00.281Z,5.62
2022-10-11T05:37:00.281Z,5.62
2022-10-11T05:38:00.287Z,5.62
2022-10-11T05:39:00.514Z,11.25
2022-10-11T05:40:00.237Z,11.25
2022-10-11T05:41:00.226Z,11.25
2022-10-11T05:42:00.242Z,11.25
2022-10-11T05:43:00.435Z,11.25
2022-10-11T05:44:00.193Z,16.88
2022-10-11T05:45:00.283Z,16.88
2022-10-11T05:46:00.181Z,16.88
2022-10-11T05:47:00.197Z,16.88
2022-10-11T05:48:00.138Z,22.50
2022-10-11T05:49:00.206Z,22.50
2022-10-11T05:50:00.161Z,22.50
2022-10-11T05:51:00.129Z,22.50
2022-10-11T05:52:00.108Z,28.12
2022-10-11T05:53:00.105Z,28.12
2022-10-11T05:54:00.094Z,28.12
2022-10-11T05:55:00.097Z,33.75
2022-10-11T05:56:00.073Z,33.75
2022-10-11T05:57:00.053Z,33.75
2022-10-11T05:58:00.042Z,39.38
2022-10-11T05:59:02.501Z,39.38
2022-10-11T06:00:00.020Z,45.00
2022-10-11T06:01:00.061Z,45.00
2022-10-11T06:02:00.006Z,50.62
2022-10-11T06:02:59.998Z,50.62
2022-10-11T06:04:01.438Z,56.25
2022-10-11T06:04:59.964Z,56.25
2022-10-11T06:05:59.953Z,56.25
2022-10-11T06:06:59.984Z,61.88
2022-10-11T06:07:59.935Z,61.88
2022-10-11T06:08:59.953Z,61.88
2022-10-11T06:09:59.906Z,67.50
2022-10-11T06:10:59.897Z,67.50
2022-10-11T06:11:59.896Z,73.12
2022-10-11T06:12:59.917Z,73.12
2022-10-11T06:13:59.891Z,73.12
2022-10-11T06:14:59.876Z,78.75
2022-10-11T06:15:59.840Z,78.75
2022-10-11T06:16:59.855Z,84.38
2022-10-11T06:17:59.827Z,84.38
2022-10-11T06:18:59.812Z,84.38
2022-10-11T06:19:59.839Z,90.00
2022-10-11T06:20:59.816Z,90.00
2022-10-11T06:21:59.767Z,90.00
2022-10-11T06:22:59.773Z,95.62
2022-10-11T06:24:01.567Z,95.62
2022-10-11T06:24:59.784Z,95.62
2022-10-11T06:25:59.740Z,101.25
2022-10-11T06:26:59.728Z,106.88
2022-10-11T06:27:59.713Z,106.88
2022-10-11T06:28:59.788Z,106.88
2022-10-11T06:29:59.787Z,106.88
2022-10-11T06:30:59.743Z,112.50
2022-10-11T06:31:59.662Z,118.12
2022-10-11T06:33:04.458Z,123.75
2022-10-11T06:34:00.687Z,129.38
2022-10-11T06:34:59.641Z,135.00
2022-10-11T06:35:59.643Z,146.25
2022-10-11T06:36:59.626Z,146.25
2022-10-11T06:37:59.604Z,146.25
2022-10-11T06:38:59.652Z,151.88
2022-10-11T06:39:59.607Z,146.25
2022-10-11T06:40:59.587Z,157.50
2022-10-11T06:41:59.569Z,163.12
2022-10-11T06:42:59.566Z,163.12
2022-10-11T06:43:59.640Z,163.12
2022-10-11T06:44:59.579Z,168.75
2022-10-11T06:45:59.524Z,168.75
2022-10-11T06:46:59.530Z,168.75
2022-10-11T06:47:59.520Z,168.75
2022-10-11T06:48:59.500Z,168.75
2022-10-11T06:49:59.537Z,174.38
2022-10-11T06:51:00.570Z,180.00
2022-10-11T06:51:59.524Z,185.62
2022-10-11T06:52:59.455Z,191.25
2022-10-11T06:53:59.442Z,191.25
2022-10-11T06:54:59.447Z,191.25
2022-10-11T06:55:59.511Z,185.62
2022-10-11T06:56:59.420Z,174.38
2022-10-11T06:57:59.391Z,180.00
2022-10-11T06:58:59.412Z,174.38
2022-10-11T06:59:59.409Z,180.00
2022-10-11T07:00:59.491Z,191.25
2022-10-11T07:01:59.361Z,191.25
2022-10-11T07:02:59.361Z,185.62
2022-10-11T07:03:59.350Z,191.25
2022-10-11T07:04:59.339Z,196.88
2022-10-11T07:06:02.392Z,196.88
2022-10-11T07:06:59.619Z,196.88
2022-10-11T07:07:59.297Z,191.25
2022-10-11T07:08:59.287Z,185.62
2022-10-11T07:09:59.264Z,185.62
2022-10-11T07:10:59.271Z,174.38
2022-10-11T07:11:59.247Z,180.00
2022-10-11T07:12:59.365Z,191.25
2022-10-11T07:13:59.260Z,230.62
2022-10-11T07:14:59.371Z,247.50
2022-10-11T07:15:59.226Z,253.12
2022-10-11T07:16:59.212Z,253.12
2022-10-11T07:17:59.188Z,241.88
2022-10-11T07:19:01.118Z,253.12
2022-10-11T07:19:59.165Z,241.88
2022-10-11T07:20:59.143Z,253.12
2022-10-11T07:21:59.153Z,253.12
2022-10-11T07:22:59.159Z,264.38
2022-10-11T07:23:59.126Z,253.12
2022-10-11T07:24:59.161Z,264.38
2022-10-11T07:25:59.111Z,270.00
2022-10-11T07:26:59.122Z,264.38
2022-10-11T07:27:59.089Z,270.00
2022-10-11T07:28:59.130Z,270.00
2022-10-11T07:29:59.070Z,264.38
2022-10-11T07:30:59.044Z,264.38
2022-10-11T07:31:59.089Z,275.62
2022-10-11T07:32:59.019Z,275.62
2022-10-11T07:33:59.071Z,286.88
2022-10-11T07:34:59.002Z,286.88
2022-10-11T07:35:59.003Z,292.50
2022-10-11T07:36:58.989Z,292.50
2022-10-11T07:37:58.965Z,292.50
2022-10-11T07:38:58.961Z,298.12
2022-10-11T07:39:58.972Z,303.75
2022-10-11T07:40:59.049Z,309.38
2022-10-11T07:41:58.940Z,315.00
2022-10-11T07:42:58.940Z,320.62
2022-10-11T07:43:58.911Z,326.25
2022-10-11T07:44:58.907Z,331.88
2022-10-11T07:45:59.121Z,331.88
2022-10-11T07:46:58.880Z,337.50
2022-10-11T07:47:58.893Z,326.25
2022-10-11T07:48:58.912Z,331.88
2022-10-11T07:49:58.908Z,326.25
2022-10-11T07:50:58.840Z,331.88
2022-10-11T07:51:58.861Z,331.88
2022-10-11T07:52:58.816Z,331.88
2022-10-11T07:54:02.266Z,337.50
2022-10-11T07:54:59.988Z,343.12
2022-10-11T07:55:58.790Z,348.75
2022-10-11T07:56:58.781Z,348.75
2022-10-11T07:57:58.801Z,343.12
2022-10-11T07:58:58.764Z,348.75
2022-10-11T07:59:58.784Z,348.75
2022-10-11T08:00:58.793Z,354.38
2022-10-11T08:01:58.785Z,360.00
2022-10-11T08:02:58.703Z,365.62
2022-10-11T08:03:58.785Z,360.00
2022-10-11T08:04:58.675Z,343.12
2022-10-11T08:05:58.682Z,348.75
2022-10-11T08:06:58.711Z,360.00
2022-10-11T08:07:58.688Z,348.75
2022-10-11T08:08:58.669Z,360.00
2022-10-11T08:09:58.640Z,371.25
2022-10-11T08:10:58.637Z,371.25
2022-10-11T08:11:58.614Z,371.25
2022-10-11T08:13:03.989Z,371.25
2022-10-11T08:13:59.587Z,382.50
2022-10-11T08:14:58.570Z,388.12
2022-10-11T08:15:58.592Z,388.12
2022-10-11T08:16:58.600Z,376.88
2022-10-11T08:17:58.560Z,371.25
2022-10-11T08:18:58.531Z,388.12
2022-10-11T08:19:58.542Z,399.38
2022-10-11T08:20:58.582Z,393.75
2022-10-11T08:21:58.599Z,416.25
2022-10-11T08:22:58.489Z,421.88
2022-10-11T08:23:58.497Z,416.25
2022-10-11T08:24:58.475Z,421.88
2022-10-11T08:25:58.482Z,421.88
2022-10-11T08:26:58.470Z,421.88
2022-10-11T08:27:59.399Z,416.25
2022-10-11T08:28:58.512Z,410.62
2022-10-11T08:29:58.479Z,410.62
2022-10-11T08:30:58.422Z,410.62
2022-10-11T08:31:58.401Z,399.38
2022-10-11T08:32:58.381Z,410.62
2022-10-11T08:33:58.427Z,405.00
2022-10-11T08:34:58.357Z,421.88
2022-10-11T08:35:58.388Z,427.50
2022-10-11T08:36:58.411Z,438.75
2022-10-11T08:37:58.371Z,438.75
2022-10-11T08:38:58.324Z,444.38
2022-10-11T08:39:58.299Z,444.38
2022-10-11T08:40:58.320Z,444.38
2022-10-11T08:41:58.337Z,444.38
2022-10-11T08:42:58.272Z,450.00
2022-10-11T08:43:58.278Z,455.62
2022-10-11T08:45:10.696Z,455.62
2022-10-11T08:45:59.247Z,461.25
2022-10-11T08:47:00.592Z,466.88
2022-10-11T08:47:58.384Z,444.38
2022-10-11T08:48:58.213Z,444.38
2022-10-11T08:49:58.250Z,455.62
2022-10-11T08:50:58.192Z,455.62
2022-10-11T08:51:58.302Z,455.62
2022-10-11T08:52:58.186Z,455.62
2022-10-11T08:53:58.158Z,455.62
2022-10-11T08:54:58.154Z,461.25
2022-10-11T08:55:58.181Z,472.50
2022-10-11T08:56:58.163Z,478.12
2022-10-11T08:57:58.108Z,500.62
2022-10-11T08:58:58.109Z,511.88
2022-10-11T08:59:58.100Z,517.50
2022-10-11T09:00:58.088Z,523.12
2022-10-11T09:01:58.154Z,528.75
2022-10-11T09:03:13.173Z,534.38
2022-10-11T09:03:59.063Z,540.00
2022-10-11T09:04:58.030Z,545.62
2022-10-11T09:05:58.069Z,551.25
2022-10-11T09:07:01.344Z,562.50
2022-10-11T09:07:59.047Z,562.50
2022-10-11T09:08:58.028Z,568.12
2022-10-11T09:09:58.002Z,573.75
2022-10-11T09:10:57.984Z,579.38
2022-10-11T09:11:58.010Z,579.38
2022-10-11T09:12:57.960Z,579.38
2022-10-11T09:13:57.951Z,573.75
2022-10-11T09:14:57.945Z,573.75
2022-10-11T09:15:57.944Z,579.38
2022-10-11T09:16:57.914Z,585.00
2022-10-11T09:17:57.901Z,579.38
2022-10-11T09:18:57.963Z,579.38
2022-10-11T09:19:57.890Z,573.75
2022-10-11T09:20:57.890Z,596.25
2022-10-11T09:21:57.860Z,607.50
2022-10-11T09:22:57.849Z,596.25
2022-10-11T09:23:57.902Z,590.62
2022-10-11T09:24:57.832Z,573.75
2022-10-11T09:25:57.828Z,579.38
2022-10-11T09:26:57.801Z,596.25
2022-10-11T09:28:02.978Z,624.38
2022-10-11T09:29:01.324Z,646.88
2022-10-11T09:29:57.779Z,663.75
2022-10-11T09:30:57.770Z,669.38
2022-10-11T09:31:57.757Z,675.00
2022-10-11T09:32:57.752Z,675.00
2022-10-11T09:33:57.743Z,686.25
2022-10-11T09:34:57.722Z,697.50
2022-10-11T09:35:57.705Z,691.88
2022-10-11T09:36:58.387Z,703.12
2022-10-11T09:37:57.704Z,708.75
2022-10-11T09:38:57.799Z,703.12
2022-10-11T09:39:57.669Z,708.75
2022-10-11T09:40:57.672Z,731.25
2022-10-11T09:41:57.672Z,720.00
2022-10-11T09:42:57.633Z,708.75
2022-10-11T09:43:57.619Z,697.50
2022-10-11T09:44:57.661Z,697.50
2022-10-11T09:45:57.603Z,697.50
2022-10-11T09:46:57.661Z,703.12
2022-10-11T09:47:57.633Z,697.50
2022-10-11T09:48:57.579Z,708.75
2022-10-11T09:49:57.822Z,731.25
2022-10-11T09:50:57.689Z,736.88
2022-10-11T09:51:57.658Z,736.88
2022-10-11T09:52:57.672Z,753.75
2022-10-11T09:53:57.544Z,742.50
2022-10-11T09:54:57.628Z,770.62
2022-10-11T09:55:57.512Z,787.50
2022-10-11T09:56:57.498Z,798.75
2022-10-11T09:57:57.499Z,798.75
2022-10-11T09:58:57.489Z,798.75
2022-10-11T09:59:57.492Z,810.00
2022-10-11T10:00:57.444Z,815.62
2022-10-11T10:01:57.521Z,798.75
2022-10-11T10:02:57.415Z,821.25
2022-10-11T10:03:57.405Z,838.12
2022-10-11T10:04:57.463Z,843.75
2022-10-11T10:05:57.419Z,838.12
2022-10-11T10:06:57.400Z,821.25
2022-10-11T10:07:57.456Z,804.38
2022-10-11T10:08:57.473Z,815.62
2022-10-11T10:09:57.344Z,804.38
2022-10-11T10:10:59.662Z,804.38
2022-10-11T10:11:57.324Z,815.62
2022-10-11T10:12:57.342Z,815.62
2022-10-11T10:13:57.357Z,843.75
2022-10-11T10:14:57.352Z,855.00
2022-10-11T10:15:57.289Z,866.25
2022-10-11T10:16:57.276Z,871.88
2022-10-11T10:17:57.378Z,871.88
2022-10-11T10:18:57.276Z,877.50
2022-10-11T10:19:57.233Z,877.50
2022-10-11T10:20:57.275Z,877.50
2022-10-11T10:21:57.220Z,871.88
2022-10-11T10:22:57.220Z,871.88
2022-10-11T10:23:57.188Z,871.88
2022-10-11T10:24:57.205Z,866.25
2022-10-11T10:25:57.171Z,877.50
2022-10-11T10:26:57.151Z,871.88
2022-10-11T10:27:57.137Z,866.25
2022-10-11T10:28:57.191Z,888.75
2022-10-11T10:29:57.121Z,888.75
2022-10-11T10:30:57.137Z,877.50
2022-10-11T10:32:58.168Z,916.88
2022-10-11T10:33:57.079Z,967.50
2022-10-11T10:34:57.116Z,956.25
2022-10-11T10:35:57.077Z,961.88
2022-10-11T10:36:57.057Z,1068.75
2022-10-11T10:37:57.043Z,1035.00
2022-10-11T10:38:57.031Z,1130.62
2022-10-11T10:39:57.026Z,1051.88
2022-10-11T10:40:57.053Z,1113.75
2022-10-11T10:41:57.007Z,1141.88
2022-10-11T10:42:56.974Z,1209.38
2022-10-11T10:43:57.004Z,1395.00
2022-10-11T10:44:57.025Z,1473.75
2022-10-11T10:45:57.049Z,1209.38
2022-10-11T10:46:56.979Z,1068.75
2022-10-11T10:47:56.924Z,1119.38
2022-10-11T10:49:41.183Z,1327.50
2022-10-11T10:49:57.925Z,1299.38
2022-10-11T10:50:56.912Z,1636.88
2022-10-11T10:51:57.131Z,1839.38
2022-10-11T10:52:56.860Z,1625.62
2022-10-11T10:53:56.902Z,1850.62
2022-10-11T10:54:56.903Z,1743.75
2022-10-11T10:55:56.884Z,1912.50
2022-10-11T10:56:56.854Z,1890.00
2022-10-11T10:57:56.835Z,2019.38
2022-10-11T10:58:56.823Z,2199.38
2022-10-11T10:59:56.798Z,2413.12
2022-10-11T11:00:56.789Z,2750.62
2022-10-11T11:01:56.855Z,2756.25
2022-10-11T11:02:56.796Z,3015.00
2022-10-11T11:03:56.752Z,2784.38
2022-10-11T11:04:56.850Z,2553.75
2022-10-11T11:05:56.746Z,2677.50
2022-10-11T11:06:56.918Z,2542.50
2022-10-11T11:07:56.739Z,2334.38
2022-10-11T11:08:56.718Z,2362.50
2022-10-11T11:09:56.704Z,2317.50
2022-10-11T11:10:56.702Z,2205.00
2022-10-11T11:11:56.706Z,2351.25
2022-10-11T11:12:56.665Z,2542.50
2022-10-11T11:13:56.673Z,2570.62
2022-10-11T11:14:56.639Z,2475.00
2022-10-11T11:15:56.628Z,2458.12
2022-10-11T11:16:56.657Z,2227.50
2022-10-11T11:17:56.655Z,2233.12
2022-10-11T11:18:56.619Z,2221.88
2022-10-11T11:19:56.588Z,2109.38
2022-10-11T11:20:56.603Z,2013.75
2022-10-11T11:21:56.590Z,1890.00
2022-10-11T11:22:56.705Z,1884.38
2022-10-11T11:23:56.554Z,2002.50
2022-10-11T11:24:56.532Z,1732.50
2022-10-11T11:25:56.532Z,1755.00
2022-10-11T11:26:56.562Z,1215.00
2022-10-11T11:27:56.510Z,1788.75
2022-10-11T11:28:56.612Z,1186.88
2022-10-11T11:29:56.484Z,1344.38
2022-10-11T11:30:56.467Z,1406.25
2022-10-11T11:31:56.480Z,990.00
2022-10-11T11:32:56.450Z,990.00
2022-10-11T11:33:56.436Z,1406.25
2022-10-11T11:34:56.432Z,1473.75
2022-10-11T11:35:56.403Z,826.88
2022-10-11T11:36:56.472Z,787.50
2022-10-11T11:38:02.515Z,798.75
2022-10-11T11:38:57.362Z,956.25
2022-10-11T11:39:56.377Z,860.62
2022-10-11T11:40:56.363Z,883.12
2022-10-11T11:41:56.336Z,950.62
2022-10-11T11:42:56.331Z,1541.25
2022-10-11T11:43:56.357Z,1068.75
2022-10-11T11:44:56.327Z,900.00
2022-10-11T11:45:56.314Z,916.88
2022-10-11T11:46:56.301Z,1158.75
2022-10-11T11:47:56.340Z,2002.50
2022-10-11T11:48:56.302Z,2368.12
2022-10-11T11:49:56.299Z,2497.50
2022-10-11T11:50:56.295Z,2688.75
2022-10-11T11:51:56.247Z,2581.88
2022-10-11T11:52:56.250Z,3144.38
2022-10-11T11:53:56.520Z,3150.00
2022-10-11T11:55:00.073Z,3060.00
2022-10-11T11:55:57.212Z,3324.38
2022-10-11T11:56:56.207Z,1051.88
2022-10-11T11:57:56.187Z,995.62
2022-10-11T11:58:56.168Z,1001.25
2022-10-11T11:59:56.154Z,1006.88
2022-10-11T12:00:56.146Z,2244.38
2022-10-11T12:01:56.158Z,2655.00
2022-10-11T12:02:56.156Z,3217.50
2022-10-11T12:03:56.140Z,2795.62
2022-10-11T12:04:56.104Z,2953.12
2022-10-11T12:05:56.105Z,2362.50
2022-10-11T12:07:15.018Z,1423.12
2022-10-11T12:07:57.115Z,2840.62
2022-10-11T12:08:56.060Z,3256.88
2022-10-11T12:09:56.073Z,3414.38
2022-10-11T12:10:56.067Z,3363.75
2022-10-11T12:11:56.069Z,3290.62
2022-10-11T12:12:56.037Z,3262.50
2022-10-11T12:13:56.010Z,3133.12
2022-10-11T12:14:56.031Z,3223.12
2022-10-11T12:15:56.007Z,3397.50
2022-10-11T12:16:56.081Z,3425.62
2022-10-11T12:17:55.976Z,2953.12
2022-10-11T12:18:55.961Z,3088.12
2022-10-11T12:19:55.962Z,2975.62
2022-10-11T12:20:55.938Z,3470.62
2022-10-11T12:21:55.955Z,3206.25
2022-10-11T12:22:55.910Z,3060.00
2022-10-11T12:23:55.894Z,995.62
2022-10-11T12:24:55.944Z,911.25
2022-10-11T12:25:55.874Z,990.00
2022-10-11T12:26:55.899Z,3909.38
2022-10-11T12:27:55.877Z,1091.25
2022-10-11T12:28:55.833Z,922.50
2022-10-11T12:29:55.833Z,978.75
2022-10-11T12:30:55.824Z,1147.50
2022-10-11T12:31:55.846Z,888.75
2022-10-11T12:32:56.302Z,978.75
2022-10-11T12:33:55.838Z,1130.62
2022-10-11T12:34:55.783Z,3380.62
2022-10-11T12:35:55.796Z,3661.88
2022-10-11T12:36:55.770Z,2649.38
2022-10-11T12:37:55.748Z,3110.62
2022-10-11T12:38:55.808Z,2705.62
2022-10-11T12:39:55.744Z,3622.50
2022-10-11T12:40:55.719Z,3408.75
2022-10-11T12:41:55.730Z,1620.00
2022-10-11T12:42:55.694Z,888.75
2022-10-11T12:43:55.698Z,905.62
2022-10-11T12:44:55.736Z,1001.25
2022-10-11T12:45:55.651Z,3301.88
2022-10-11T12:46:55.642Z,3324.38
2022-10-11T12:47:55.653Z,2925.00